Terminal Aerodrome Forecast
Issued by NWS

Home | Current Version | Previous Version | Text Only | Print | Product List | Glossary On
Versions: 1 2 3 4 5 6 7 8 9 10 11 12 13
454
FTUS42 KMLB 301728
TAFISM
TAF
KISM 301728Z 3018/3118 11005KT P6SM VCSH SCT030 SCT060
      TEMPO 3019/3022 3SM TSRA BKN024CB OVC040
     FM310100 15006KT P6SM VCSH FEW020 SCT040 BKN150
     FM311200 17005KT P6SM VCSH SCT025 OVC100
     FM311400 20010KT P6SM VCSH SCT030 OVC060=

USA.gov is the U.S. government's official web portal to all federal, state and local government web resources and services.